• Join FlightAware (Why Join?)
  • Login
  • US Flag 
10:58PM EDT


 

Airport Tracker/Info


-or-


 

Live Flight TrackerFlight Track Log ✈ EJA829P ✈ 09-Nov-2013 ✈ KAPF - KVRB

Flight Track Log - Related Links

Times and Time Zones

All times are in EST time to prevent confusion due to time zone crossing. See the EJA829P flight status page for this flight to view local times or setup timezone preferences in your user account.

Time Position Orientation Groundspeed Altitude Reporting Facility
EST Latitude Longitude Course Direction KTS MPH feet Rate Location/Type
06:20PM 26.1894 -81.7275 46° Northeast 187 215 3,900  Level Miami Center
06:21PM 26.2386 -81.6925 33° Northeast 205 236 7,200 3,000 Climbing Miami Center
06:22PM 26.3133 -81.7025 353° North 221 254 9,900 2,640 Climbing Miami Center
06:23PM 26.3886 -81.7033 359° North 255 293 12,500 2,400 Climbing Miami Center
06:24PM 26.4467 -81.6500 39° Northeast 249 287 14,700 1,260 Climbing Miami Center
06:25PM 26.4914 -81.4737 46° Northeast  Level Estimated
06:25PM 26.5047 -81.5944 41° Northeast 280 322 15,100  Level Miami Center
06:26PM 26.5694 -81.5344 40° Northeast 300 345 15,100  Level Miami Center
06:27PM 26.6361 -81.4719 40° Northeast 300 345 15,100  Level Miami Center
06:28PM 26.7006 -81.4139 39° Northeast 300 345 15,100 -180 Level Miami Center
06:29PM 26.7650 -81.3536 40° Northeast 300 345 14,800 -840 Descending Miami Center
06:30PM 26.8339 -81.2889 40° Northeast 289 333 13,500 -1,200 Descending Miami Center
06:31PM 26.8961 -81.2308 40° Northeast 289 333 12,400 -1,140 Descending Miami Center
06:32PM 26.9564 -81.1747 40° Northeast 289 333 11,300 -1,140 Descending Miami Center
06:33PM 27.0144 -81.1186 41° Northeast 289 333 10,200 -1,140 Descending Miami Center
06:34PM 27.0744 -81.0625 40° Northeast 289 333 9,100 -1,080 Descending Miami Center
06:35PM 27.1322 -81.0086 40° Northeast 282 325 8,100 -1,080 Descending Miami Center
06:36PM 27.1839 -80.9614 39° Northeast 264 304 7,000 -600 Descending Miami Center
06:37PM 27.2375 -80.9097 41° Northeast 259 298 6,900 -900 Descending Miami Center
06:38PM 27.2975 -80.8533 40° Northeast 259 298 5,200 -1,020 Descending Miami Center
06:39PM 27.3489 -80.8061 39° Northeast 254 292 4,900 -900 Descending Miami Center
06:40PM 27.3961 -80.7631 39° Northeast 244 281 3,500 -1,440 Descending Miami Center
06:41PM 27.4453 -80.7158 40° Northeast 236 272 2,100 -780 Descending Miami Center
06:42PM 27.4944 -80.6683 41° Northeast 225 259 2,000 -60 Descending Miami Center
06:43PM 27.5458 -80.6253 37° Northeast 220 253 2,000  Level Miami Center
06:44PM 27.5928 -80.5872 36° Northeast 225 259 2,000  Level Miami Center
06:45PM 27.6397 -80.5394 42° Northeast 225 259 2,000 -420 Level Miami Center
06:46PM 27.6725 -80.4842 56° Northeast 200 230 1,200 -900 Descending Miami Center
06:47PM 27.6631 -80.4464 106° East 135 155 300 -900 Descending Miami Center